sensor_id;sensor_type;location;lat;lon;timestamp;pressure;altitude;pressure_sealevel;temperature;humidity
60437;BME280;46289;51.992;4.498;2023-02-18T00:00:16;102452.97;;;8.73;94.86
60437;BME280;46289;51.992;4.498;2023-02-18T00:02:23;102449.50;;;8.71;95.17
60437;BME280;46289;51.992;4.498;2023-02-18T00:04:28;102446.03;;;8.67;95.28
60437;BME280;46289;51.992;4.498;2023-02-18T00:06:34;102441.69;;;8.63;95.14
60437;BME280;46289;51.992;4.498;2023-02-18T00:08:43;102445.19;;;8.61;95.40
60437;BME280;46289;51.992;4.498;2023-02-18T00:10:52;102433.81;;;8.65;95.24
60437;BME280;46289;51.992;4.498;2023-02-18T00:12:57;102431.19;;;8.63;95.36
60437;BME280;46289;51.992;4.498;2023-02-18T00:15:03;102421.63;;;8.59;95.38
60437;BME280;46289;51.992;4.498;2023-02-18T00:17:11;102426.88;;;8.59;95.42
60437;BME280;46289;51.992;4.498;2023-02-18T00:19:18;102423.38;;;8.57;95.56
60437;BME280;46289;51.992;4.498;2023-02-18T00:21:23;102419.03;;;8.54;95.76
60437;BME280;46289;51.992;4.498;2023-02-18T00:23:29;102416.41;;;8.53;95.92
60437;BME280;46289;51.992;4.498;2023-02-18T00:25:34;102418.16;;;8.57;95.78
60437;BME280;46289;51.992;4.498;2023-02-18T00:27:42;102421.69;;;8.50;96.06
60437;BME280;46289;51.992;4.498;2023-02-18T00:29:50;102416.44;;;8.50;95.87
60437;BME280;46289;51.992;4.498;2023-02-18T00:31:54;102413.81;;;8.51;95.76
60437;BME280;46289;51.992;4.498;2023-02-18T00:34:03;102413.84;;;8.47;96.03
60437;BME280;46289;51.992;4.498;2023-02-18T00:36:10;102407.75;;;8.48;96.14
60437;BME280;46289;51.992;4.498;2023-02-18T00:38:15;102414.72;;;8.46;96.11
60437;BME280;46289;51.992;4.498;2023-02-18T00:40:21;102401.63;;;8.46;95.98
60437;BME280;46289;51.992;4.498;2023-02-18T00:42:26;102405.97;;;8.50;95.98
60437;BME280;46289;51.992;4.498;2023-02-18T00:44:31;102399.81;;;8.52;96.27
60437;BME280;46289;51.992;4.498;2023-02-18T00:46:38;102399.81;;;8.57;95.77
60437;BME280;46289;51.992;4.498;2023-02-18T00:48:43;102407.69;;;8.54;95.86
60437;BME280;46289;51.992;4.498;2023-02-18T00:50:52;102400.69;;;8.56;95.99
60437;BME280;46289;51.992;4.498;2023-02-18T00:52:59;102394.56;;;8.55;96.41
60437;BME280;46289;51.992;4.498;2023-02-18T00:55:06;102391.94;;;8.55;96.34
60437;BME280;46289;51.992;4.498;2023-02-18T00:57:11;102386.69;;;8.57;96.20
60437;BME280;46289;51.992;4.498;2023-02-18T00:59:16;102385.81;;;8.60;96.15
60437;BME280;46289;51.992;4.498;2023-02-18T01:01:22;102385.78;;;8.63;96.25
60437;BME280;46289;51.992;4.498;2023-02-18T01:03:27;102379.72;;;8.59;96.25
60437;BME280;46289;51.992;4.498;2023-02-18T01:05:32;102381.41;;;8.63;96.00
60437;BME280;46289;51.992;4.498;2023-02-18T01:07:40;102375.34;;;8.60;96.28
60437;BME280;46289;51.992;4.498;2023-02-18T01:09:45;102370.09;;;8.61;95.99
60437;BME280;46289;51.992;4.498;2023-02-18T01:11:50;102376.16;;;8.65;96.25
60437;BME280;46289;51.992;4.498;2023-02-18T01:13:57;102383.16;;;8.64;96.16
60437;BME280;46289;51.992;4.498;2023-02-18T01:16:03;102377.00;;;8.68;96.18
60437;BME280;46289;51.992;4.498;2023-02-18T01:18:09;102381.34;;;8.71;96.05
60437;BME280;46289;51.992;4.498;2023-02-18T01:20:15;102377.91;;;8.67;96.26
60437;BME280;46289;51.992;4.498;2023-02-18T01:22:20;102377.00;;;8.70;96.26
60437;BME280;46289;51.992;4.498;2023-02-18T01:24:27;102369.16;;;8.65;96.15
60437;BME280;46289;51.992;4.498;2023-02-18T01:26:32;102370.94;;;8.63;96.09
60437;BME280;46289;51.992;4.498;2023-02-18T01:28:37;102368.31;;;8.66;96.33
60437;BME280;46289;51.992;4.498;2023-02-18T01:30:43;102360.41;;;8.69;95.94
60437;BME280;46289;51.992;4.498;2023-02-18T01:32:54;102360.44;;;8.66;96.16
60437;BME280;46289;51.992;4.498;2023-02-18T01:35:00;102357.78;;;8.69;95.82
60437;BME280;46289;51.992;4.498;2023-02-18T01:37:08;102365.69;;;8.66;96.06
60437;BME280;46289;51.992;4.498;2023-02-18T01:39:13;102363.00;;;8.71;96.17
60437;BME280;46289;51.992;4.498;2023-02-18T01:41:20;102363.94;;;8.65;96.35
60437;BME280;46289;51.992;4.498;2023-02-18T01:43:25;102363.06;;;8.63;96.52
60437;BME280;46289;51.992;4.498;2023-02-18T01:45:55;102353.47;;;8.62;96.67
60437;BME280;46289;51.992;4.498;2023-02-18T01:48:03;102348.19;;;8.65;96.79
60437;BME280;46289;51.992;4.498;2023-02-18T01:50:09;102354.31;;;8.67;96.47
60437;BME280;46289;51.992;4.498;2023-02-18T01:52:18;102346.47;;;8.63;96.93
60437;BME280;46289;51.992;4.498;2023-02-18T01:54:27;102340.38;;;8.61;96.99
60437;BME280;46289;51.992;4.498;2023-02-18T01:56:48;102339.50;;;8.62;97.07
60437;BME280;46289;51.992;4.498;2023-02-18T01:58:57;102337.75;;;8.61;97.13
60437;BME280;46289;51.992;4.498;2023-02-18T02:01:04;102335.13;;;8.61;97.17
60437;BME280;46289;51.992;4.498;2023-02-18T02:03:09;102330.78;;;8.61;96.97
60437;BME280;46289;51.992;4.498;2023-02-18T02:05:15;102323.78;;;8.60;97.19
60437;BME280;46289;51.992;4.498;2023-02-18T02:07:21;102327.28;;;8.64;96.94
60437;BME280;46289;51.992;4.498;2023-02-18T02:09:29;102317.69;;;8.60;97.25
60437;BME280;46289;51.992;4.498;2023-02-18T02:11:54;102315.06;;;8.60;97.34
60437;BME280;46289;51.992;4.498;2023-02-18T02:14:19;102302.81;;;8.60;97.23
60437;BME280;46289;51.992;4.498;2023-02-18T02:16:32;102295.84;;;8.59;97.05
60437;BME280;46289;51.992;4.498;2023-02-18T02:18:49;102294.06;;;8.64;96.97
60437;BME280;46289;51.992;4.498;2023-02-18T02:26:34;102291.41;;;8.67;97.40
60437;BME280;46289;51.992;4.498;2023-02-18T02:29:23;102276.56;;;8.69;96.99
60437;BME280;46289;51.992;4.498;2023-02-18T02:34:42;102273.94;;;8.69;97.19
60437;BME280;46289;51.992;4.498;2023-02-18T02:36:55;102259.94;;;8.70;97.30
60437;BME280;46289;51.992;4.498;2023-02-18T02:39:09;102252.97;;;8.69;97.11
60437;BME280;46289;51.992;4.498;2023-02-18T02:41:30;102248.59;;;8.68;97.04
60437;BME280;46289;51.992;4.498;2023-02-18T02:43:45;102229.38;;;8.69;97.53
60437;BME280;46289;51.992;4.498;2023-02-18T02:45:57;102233.75;;;8.66;97.12
60437;BME280;46289;51.992;4.498;2023-02-18T02:48:08;102232.03;;;8.65;97.17
60437;BME280;46289;51.992;4.498;2023-02-18T02:50:27;102230.31;;;8.64;97.13
60437;BME280;46289;51.992;4.498;2023-02-18T02:54:35;102220.69;;;8.63;97.17
60437;BME280;46289;51.992;4.498;2023-02-18T02:56:41;102205.84;;;8.63;97.30
60437;BME280;46289;51.992;4.498;2023-02-18T02:58:51;102209.31;;;8.65;97.29
60437;BME280;46289;51.992;4.498;2023-02-18T03:01:13;102211.91;;;8.68;97.47
60437;BME280;46289;51.992;4.498;2023-02-18T03:03:42;102213.66;;;8.68;97.56
60437;BME280;46289;51.992;4.498;2023-02-18T03:06:09;102212.78;;;8.67;97.38
60437;BME280;46289;51.992;4.498;2023-02-18T03:08:29;102208.41;;;8.69;97.14
60437;BME280;46289;51.992;4.498;2023-02-18T03:10:48;102211.91;;;8.68;97.48
60437;BME280;46289;51.992;4.498;2023-02-18T03:13:04;102210.09;;;8.73;97.74
60437;BME280;46289;51.992;4.498;2023-02-18T03:15:17;102199.66;;;8.70;97.51
60437;BME280;46289;51.992;4.498;2023-02-18T03:17:29;102199.56;;;8.76;97.74
60437;BME280;46289;51.992;4.498;2023-02-18T03:19:38;102211.81;;;8.77;97.79
60437;BME280;46289;51.992;4.498;2023-02-18T03:21:51;102200.44;;;8.80;97.68
60437;BME280;46289;51.992;4.498;2023-02-18T03:24:02;102195.16;;;8.82;97.66
60437;BME280;46289;51.992;4.498;2023-02-18T03:26:10;102195.16;;;8.82;97.56
60437;BME280;46289;51.992;4.498;2023-02-18T03:28:18;102179.41;;;8.85;97.70
60437;BME280;46289;51.992;4.498;2023-02-18T03:30:27;102163.69;;;8.85;97.59
60437;BME280;46289;51.992;4.498;2023-02-18T03:32:34;102160.16;;;8.84;97.63
60437;BME280;46289;51.992;4.498;2023-02-18T03:34:42;102155.81;;;8.83;97.44
60437;BME280;46289;51.992;4.498;2023-02-18T03:36:51;102155.88;;;8.80;97.53
60437;BME280;46289;51.992;4.498;2023-02-18T03:38:59;102152.34;;;8.81;97.35
60437;BME280;46289;51.992;4.498;2023-02-18T03:41:06;102148.00;;;8.80;97.30
60437;BME280;46289;51.992;4.498;2023-02-18T03:43:12;102153.25;;;8.80;97.08
60437;BME280;46289;51.992;4.498;2023-02-18T03:45:17;102152.38;;;8.79;97.38
60437;BME280;46289;51.992;4.498;2023-02-18T03:47:22;102145.38;;;8.78;97.46
60437;BME280;46289;51.992;4.498;2023-02-18T03:49:27;102137.53;;;8.80;96.97
60437;BME280;46289;51.992;4.498;2023-02-18T03:51:32;102135.75;;;8.81;97.16
60437;BME280;46289;51.992;4.498;2023-02-18T03:53:39;102141.00;;;8.82;97.21
60437;BME280;46289;51.992;4.498;2023-02-18T03:55:44;102135.75;;;8.82;96.96
60437;BME280;46289;51.992;4.498;2023-02-18T03:57:49;102138.38;;;8.82;97.06
60437;BME280;46289;51.992;4.498;2023-02-18T03:59:54;102142.72;;;8.82;97.12
60437;BME280;46289;51.992;4.498;2023-02-18T04:01:59;102141.81;;;8.84;96.91
60437;BME280;46289;51.992;4.498;2023-02-18T04:04:05;102134.84;;;8.85;97.03
60437;BME280;46289;51.992;4.498;2023-02-18T04:06:13;102137.44;;;8.88;96.99
60437;BME280;46289;51.992;4.498;2023-02-18T04:08:17;102130.44;;;8.87;97.04
60437;BME280;46289;51.992;4.498;2023-02-18T04:10:25;102132.19;;;8.88;97.15
60437;BME280;46289;51.992;4.498;2023-02-18T04:12:31;102126.00;;;8.92;96.71
60437;BME280;46289;51.992;4.498;2023-02-18T04:14:36;102128.63;;;8.93;96.76
60437;BME280;46289;51.992;4.498;2023-02-18T04:16:41;102127.72;;;8.96;96.84
60437;BME280;46289;51.992;4.498;2023-02-18T04:18:48;102120.72;;;8.95;97.01
60437;BME280;46289;51.992;4.498;2023-02-18T04:20:53;102131.19;;;8.98;97.16
60437;BME280;46289;51.992;4.498;2023-02-18T04:22:58;102122.41;;;8.99;96.93
60437;BME280;46289;51.992;4.498;2023-02-18T04:25:04;102120.66;;;9.01;96.62
60437;BME280;46289;51.992;4.498;2023-02-18T04:27:14;102108.41;;;9.03;96.83
60437;BME280;46289;51.992;4.498;2023-02-18T04:29:19;102118.00;;;9.02;96.82
60437;BME280;46289;51.992;4.498;2023-02-18T04:31:24;102115.41;;;9.01;96.62
60437;BME280;46289;51.992;4.498;2023-02-18T04:33:29;102110.16;;;9.01;96.99
60437;BME280;46289;51.992;4.498;2023-02-18T04:35:36;102114.47;;;9.05;96.86
60437;BME280;46289;51.992;4.498;2023-02-18T04:37:42;102118.88;;;9.03;96.69
60437;BME280;46289;51.992;4.498;2023-02-18T04:39:50;102108.34;;;9.06;96.57
60437;BME280;46289;51.992;4.498;2023-02-18T04:41:56;102104.84;;;9.06;96.92
60437;BME280;46289;51.992;4.498;2023-02-18T04:44:03;102096.09;;;9.07;96.71
60437;BME280;46289;51.992;4.498;2023-02-18T04:46:08;102092.56;;;9.08;96.80
60437;BME280;46289;51.992;4.498;2023-02-18T04:48:13;102073.31;;;9.10;96.47
60437;BME280;46289;51.992;4.498;2023-02-18T04:50:18;102073.31;;;9.10;96.75
60437;BME280;46289;51.992;4.498;2023-02-18T04:52:23;102075.06;;;9.11;96.46
60437;BME280;46289;51.992;4.498;2023-02-18T04:54:28;102070.69;;;9.12;96.62
60437;BME280;46289;51.992;4.498;2023-02-18T04:56:33;102073.31;;;9.12;96.26
60437;BME280;46289;51.992;4.498;2023-02-18T04:58:38;102075.06;;;9.10;96.57
60437;BME280;46289;51.992;4.498;2023-02-18T05:00:45;102061.94;;;9.11;96.43
60437;BME280;46289;51.992;4.498;2023-02-18T05:02:50;102073.25;;;9.13;96.02
60437;BME280;46289;51.992;4.498;2023-02-18T05:04:55;102078.50;;;9.13;96.47
60437;BME280;46289;51.992;4.498;2023-02-18T05:07:00;102081.13;;;9.15;96.01
60437;BME280;46289;51.992;4.498;2023-02-18T05:09:05;102087.16;;;9.20;95.83
60437;BME280;46289;51.992;4.498;2023-02-18T05:11:09;102079.34;;;9.15;96.16
60437;BME280;46289;51.992;4.498;2023-02-18T05:13:18;102072.34;;;9.17;95.79
60437;BME280;46289;51.992;4.498;2023-02-18T05:15:23;102071.44;;;9.20;96.03
60437;BME280;46289;51.992;4.498;2023-02-18T05:17:31;102053.97;;;9.17;95.80
60437;BME280;46289;51.992;4.498;2023-02-18T05:19:38;102074.97;;;9.17;96.13
60437;BME280;46289;51.992;4.498;2023-02-18T05:21:43;102074.06;;;9.18;95.84
60437;BME280;46289;51.992;4.498;2023-02-18T05:23:48;102068.75;;;9.21;95.78
60437;BME280;46289;51.992;4.498;2023-02-18T05:25:53;102049.63;;;9.16;95.91
60437;BME280;46289;51.992;4.498;2023-02-18T05:27:58;102049.59;;;9.18;95.84
60437;BME280;46289;51.992;4.498;2023-02-18T05:30:05;102054.03;;;9.14;95.79
60437;BME280;46289;51.992;4.498;2023-02-18T05:32:10;102044.41;;;9.15;95.86
60437;BME280;46289;51.992;4.498;2023-02-18T05:34:17;102057.50;;;9.16;95.65
60437;BME280;46289;51.992;4.498;2023-02-18T05:36:22;102052.28;;;9.13;95.49
60437;BME280;46289;51.992;4.498;2023-02-18T05:38:27;102059.34;;;9.08;95.81
60437;BME280;46289;51.992;4.498;2023-02-18T05:40:32;102051.47;;;9.10;96.05
60437;BME280;46289;51.992;4.498;2023-02-18T05:42:37;102048.91;;;9.07;95.76
60437;BME280;46289;51.992;4.498;2023-02-18T05:44:42;102034.06;;;9.04;96.02
60437;BME280;46289;51.992;4.498;2023-02-18T05:46:46;102055.09;;;9.01;95.87
60437;BME280;46289;51.992;4.498;2023-02-18T05:48:53;102046.41;;;8.97;96.31
60437;BME280;46289;51.992;4.498;2023-02-18T05:51:01;102047.28;;;8.96;96.24
60437;BME280;46289;51.992;4.498;2023-02-18T05:53:09;102042.97;;;8.94;96.13
60437;BME280;46289;51.992;4.498;2023-02-18T05:55:18;102041.19;;;8.94;96.42
60437;BME280;46289;51.992;4.498;2023-02-18T05:57:25;102038.63;;;8.93;96.39
60437;BME280;46289;51.992;4.498;2023-02-18T05:59:33;102049.94;;;8.95;96.40
60437;BME280;46289;51.992;4.498;2023-02-18T06:01:38;102054.31;;;8.94;96.03
60437;BME280;46289;51.992;4.498;2023-02-18T06:03:43;102040.38;;;8.91;96.24
60437;BME280;46289;51.992;4.498;2023-02-18T06:05:49;102031.63;;;8.93;96.14
60437;BME280;46289;51.992;4.498;2023-02-18T06:07:57;102034.19;;;8.95;96.09
60437;BME280;46289;51.992;4.498;2023-02-18T06:10:03;102034.25;;;8.92;96.08
60437;BME280;46289;51.992;4.498;2023-02-18T06:12:09;102053.47;;;8.92;95.88
60437;BME280;46289;51.992;4.498;2023-02-18T06:14:15;102043.00;;;8.91;96.18
60437;BME280;46289;51.992;4.498;2023-02-18T06:16:21;102035.94;;;8.96;96.04
60437;BME280;46289;51.992;4.498;2023-02-18T06:18:29;102034.25;;;8.93;95.31
60437;BME280;46289;51.992;4.498;2023-02-18T06:20:34;102036.75;;;8.99;95.37
60437;BME280;46289;51.992;4.498;2023-02-18T06:22:39;102034.13;;;9.01;95.38
60437;BME280;46289;51.992;4.498;2023-02-18T06:24:50;102035.00;;;9.00;95.26
60437;BME280;46289;51.992;4.498;2023-02-18T06:27:04;102027.19;;;8.98;95.34
60437;BME280;46289;51.992;4.498;2023-02-18T06:29:11;102035.84;;;9.02;95.15
60437;BME280;46289;51.992;4.498;2023-02-18T06:31:17;102031.50;;;9.01;95.36
60437;BME280;46289;51.992;4.498;2023-02-18T06:33:25;102029.75;;;9.01;95.19
60437;BME280;46289;51.992;4.498;2023-02-18T06:35:29;102031.47;;;9.04;95.19
60437;BME280;46289;51.992;4.498;2023-02-18T06:37:37;102022.75;;;9.02;95.07
60437;BME280;46289;51.992;4.498;2023-02-18T06:39:41;102024.50;;;9.00;94.74
60437;BME280;46289;51.992;4.498;2023-02-18T06:41:52;102019.22;;;9.05;94.95
60437;BME280;46289;51.992;4.498;2023-02-18T06:44:02;102022.69;;;9.07;94.47
60437;BME280;46289;51.992;4.498;2023-02-18T06:46:07;102027.88;;;9.08;94.42
60437;BME280;46289;51.992;4.498;2023-02-18T06:48:13;102022.63;;;9.08;94.08
60437;BME280;46289;51.992;4.498;2023-02-18T06:50:17;102030.44;;;9.13;93.51
60437;BME280;46289;51.992;4.498;2023-02-18T06:52:22;102024.34;;;9.11;93.78
60437;BME280;46289;51.992;4.498;2023-02-18T06:54:27;102013.06;;;9.06;93.53
60437;BME280;46289;51.992;4.498;2023-02-18T06:56:32;102018.28;;;9.07;93.69
60437;BME280;46289;51.992;4.498;2023-02-18T06:58:40;102025.31;;;9.07;92.94
60437;BME280;46289;51.992;4.498;2023-02-18T07:00:46;102034.94;;;9.06;92.74
60437;BME280;46289;51.992;4.498;2023-02-18T07:02:51;102026.16;;;9.06;93.04
60437;BME280;46289;51.992;4.498;2023-02-18T07:04:58;102036.72;;;9.02;92.42
60437;BME280;46289;51.992;4.498;2023-02-18T07:07:12;102022.78;;;9.00;92.41
60437;BME280;46289;51.992;4.498;2023-02-18T07:09:22;102010.59;;;8.96;91.89
60437;BME280;46289;51.992;4.498;2023-02-18T07:11:47;102020.22;;;8.96;92.09
60437;BME280;46289;51.992;4.498;2023-02-18T07:14:08;102013.22;;;8.96;91.07
60437;BME280;46289;51.992;4.498;2023-02-18T07:17:16;102010.59;;;8.98;90.92
60437;BME280;46289;51.992;4.498;2023-02-18T07:20:22;102014.94;;;8.99;90.14
60437;BME280;46289;51.992;4.498;2023-02-18T07:23:08;102016.69;;;8.97;90.37
60437;BME280;46289;51.992;4.498;2023-02-18T07:25:31;102014.03;;;9.00;89.73
60437;BME280;46289;51.992;4.498;2023-02-18T07:30:38;102014.06;;;8.97;89.77
60437;BME280;46289;51.992;4.498;2023-02-18T07:35:06;102009.75;;;8.94;89.53
60437;BME280;46289;51.992;4.498;2023-02-18T07:37:28;102021.94;;;8.97;89.26
60437;BME280;46289;51.992;4.498;2023-02-18T07:39:40;102022.78;;;8.99;88.95
60437;BME280;46289;51.992;4.498;2023-02-18T07:41:46;102006.25;;;8.95;89.08
60437;BME280;46289;51.992;4.498;2023-02-18T07:43:51;102005.25;;;9.02;88.26
60437;BME280;46289;51.992;4.498;2023-02-18T07:45:58;102011.34;;;9.06;88.13
60437;BME280;46289;51.992;4.498;2023-02-18T07:48:11;102007.81;;;9.06;87.93
60437;BME280;46289;51.992;4.498;2023-02-18T07:50:23;102013.97;;;9.05;88.32
60437;BME280;46289;51.992;4.498;2023-02-18T07:52:30;102020.94;;;9.06;87.92
60437;BME280;46289;51.992;4.498;2023-02-18T07:54:38;102023.59;;;9.04;88.13
60437;BME280;46289;51.992;4.498;2023-02-18T07:56:49;102013.09;;;9.04;87.61
60437;BME280;46289;51.992;4.498;2023-02-18T07:58:56;102023.59;;;9.04;87.93
60437;BME280;46289;51.992;4.498;2023-02-18T08:01:07;102026.25;;;9.01;87.89
60437;BME280;46289;51.992;4.498;2023-02-18T08:03:16;102034.13;;;8.99;88.22
60437;BME280;46289;51.992;4.498;2023-02-18T08:05:36;102024.56;;;8.98;88.08
60437;BME280;46289;51.992;4.498;2023-02-18T08:07:41;102024.50;;;9.03;87.54
60437;BME280;46289;51.992;4.498;2023-02-18T08:09:47;102020.13;;;9.02;87.71
60437;BME280;46289;51.992;4.498;2023-02-18T08:11:52;102033.19;;;9.05;87.80
60437;BME280;46289;51.992;4.498;2023-02-18T08:14:04;102027.91;;;9.07;87.80
60437;BME280;46289;51.992;4.498;2023-02-18T08:16:12;102027.13;;;9.03;88.47
60437;BME280;46289;51.992;4.498;2023-02-18T08:18:19;102036.75;;;9.01;88.70
60437;BME280;46289;51.992;4.498;2023-02-18T08:20:27;102026.28;;;8.99;89.02
60437;BME280;46289;51.992;4.498;2023-02-18T08:22:32;102035.91;;;8.97;89.23
60437;BME280;46289;51.992;4.498;2023-02-18T08:24:37;102042.03;;;8.98;89.26
60437;BME280;46289;51.992;4.498;2023-02-18T08:26:41;102028.13;;;8.93;89.59
60437;BME280;46289;51.992;4.498;2023-02-18T08:29:00;102039.44;;;8.95;89.98
60437;BME280;46289;51.992;4.498;2023-02-18T08:31:05;102029.84;;;8.95;89.70
60437;BME280;46289;51.992;4.498;2023-02-18T08:33:14;102037.66;;;8.98;89.30
60437;BME280;46289;51.992;4.498;2023-02-18T08:35:19;102039.44;;;8.98;89.31
60437;BME280;46289;51.992;4.498;2023-02-18T08:37:25;102030.56;;;9.05;88.66
60437;BME280;46289;51.992;4.498;2023-02-18T08:39:50;102036.66;;;9.07;88.37
60437;BME280;46289;51.992;4.498;2023-02-18T08:41:56;102040.19;;;9.06;88.33
60437;BME280;46289;51.992;4.498;2023-02-18T08:44:01;102029.63;;;9.09;87.50
60437;BME280;46289;51.992;4.498;2023-02-18T08:46:05;102034.78;;;9.15;86.93
60437;BME280;46289;51.992;4.498;2023-02-18T08:48:19;102039.16;;;9.15;86.79
60437;BME280;46289;51.992;4.498;2023-02-18T08:50:26;102038.25;;;9.16;86.65
60437;BME280;46289;51.992;4.498;2023-02-18T08:52:32;102036.47;;;9.18;86.12
60437;BME280;46289;51.992;4.498;2023-02-18T08:54:37;102046.97;;;9.19;86.52
60437;BME280;46289;51.992;4.498;2023-02-18T08:56:41;102053.88;;;9.23;86.26
60437;BME280;46289;51.992;4.498;2023-02-18T08:58:49;102053.81;;;9.27;86.29
60437;BME280;46289;51.992;4.498;2023-02-18T09:01:00;102057.28;;;9.29;86.63
60437;BME280;46289;51.992;4.498;2023-02-18T09:03:06;102066.00;;;9.31;86.43
60437;BME280;46289;51.992;4.498;2023-02-18T09:05:14;102060.81;;;9.28;86.03
60437;BME280;46289;51.992;4.498;2023-02-18T09:07:21;102068.69;;;9.28;86.32
60437;BME280;46289;51.992;4.498;2023-02-18T09:09:26;102057.28;;;9.29;86.26
60437;BME280;46289;51.992;4.498;2023-02-18T09:11:30;102074.78;;;9.28;86.10
60437;BME280;46289;51.992;4.498;2023-02-18T09:13:36;102076.50;;;9.31;86.08
60437;BME280;46289;51.992;4.498;2023-02-18T09:15:40;102078.22;;;9.35;86.40
60437;BME280;46289;51.992;4.498;2023-02-18T09:17:46;102078.22;;;9.33;86.06
60437;BME280;46289;51.992;4.498;2023-02-18T09:19:53;102087.84;;;9.33;86.28
60437;BME280;46289;51.992;4.498;2023-02-18T09:22:05;102079.06;;;9.35;85.68
60437;BME280;46289;51.992;4.498;2023-02-18T09:24:10;102078.97;;;9.40;85.51
60437;BME280;46289;51.992;4.498;2023-02-18T09:26:17;102082.50;;;9.39;85.64
60437;BME280;46289;51.992;4.498;2023-02-18T09:28:24;102090.34;;;9.40;85.57
60437;BME280;46289;51.992;4.498;2023-02-18T09:30:29;102078.22;;;9.35;85.97
60437;BME280;46289;51.992;4.498;2023-02-18T09:32:36;102077.38;;;9.31;85.98
60437;BME280;46289;51.992;4.498;2023-02-18T09:34:41;102081.69;;;9.34;85.97
60437;BME280;46289;51.992;4.498;2023-02-18T09:36:45;102087.78;;;9.36;86.47
60437;BME280;46289;51.992;4.498;2023-02-18T09:38:53;102104.44;;;9.33;86.47
60437;BME280;46289;51.992;4.498;2023-02-18T09:41:02;102093.00;;;9.39;86.19
60437;BME280;46289;51.992;4.498;2023-02-18T09:43:18;102097.25;;;9.46;86.19
60437;BME280;46289;51.992;4.498;2023-02-18T09:45:29;102103.38;;;9.48;86.41
60437;BME280;46289;51.992;4.498;2023-02-18T09:47:35;102106.00;;;9.47;85.87
60437;BME280;46289;51.992;4.498;2023-02-18T09:49:45;102110.44;;;9.43;86.12
60437;BME280;46289;51.992;4.498;2023-02-18T09:51:51;102097.31;;;9.41;86.39
60437;BME280;46289;51.992;4.498;2023-02-18T09:53:59;102091.28;;;9.38;86.24
60437;BME280;46289;51.992;4.498;2023-02-18T09:56:09;102095.63;;;9.39;86.43
60437;BME280;46289;51.992;4.498;2023-02-18T09:58:18;102094.75;;;9.37;86.49
60437;BME280;46289;51.992;4.498;2023-02-18T10:00:28;102091.28;;;9.38;86.85
60437;BME280;46289;51.992;4.498;2023-02-18T10:02:37;102092.06;;;9.43;86.51
60437;BME280;46289;51.992;4.498;2023-02-18T10:04:50;102087.63;;;9.48;86.54
60437;BME280;46289;51.992;4.498;2023-02-18T10:06:58;102118.16;;;9.52;86.65
60437;BME280;46289;51.992;4.498;2023-02-18T10:09:15;102105.09;;;9.48;86.00
60437;BME280;46289;51.992;4.498;2023-02-18T10:11:28;102117.28;;;9.52;86.53
60437;BME280;46289;51.992;4.498;2023-02-18T10:13:33;102095.44;;;9.51;86.75
60437;BME280;46289;51.992;4.498;2023-02-18T10:15:38;102104.91;;;9.58;86.50
60437;BME280;46289;51.992;4.498;2023-02-18T10:17:45;102117.13;;;9.62;86.63
60437;BME280;46289;51.992;4.498;2023-02-18T10:19:53;102116.28;;;9.60;86.44
60437;BME280;46289;51.992;4.498;2023-02-18T10:21:59;102119.75;;;9.62;86.57
60437;BME280;46289;51.992;4.498;2023-02-18T10:24:15;102129.31;;;9.66;86.59
60437;BME280;46289;51.992;4.498;2023-02-18T10:26:23;102134.56;;;9.66;86.58
60437;BME280;46289;51.992;4.498;2023-02-18T10:28:28;102139.78;;;9.68;86.40
60437;BME280;46289;51.992;4.498;2023-02-18T10:30:36;102140.63;;;9.68;86.70
60437;BME280;46289;51.992;4.498;2023-02-18T10:32:44;102124.00;;;9.70;86.45
60437;BME280;46289;51.992;4.498;2023-02-18T10:34:52;102133.59;;;9.71;86.42
60437;BME280;46289;51.992;4.498;2023-02-18T10:37:06;102145.84;;;9.72;86.60
60437;BME280;46289;51.992;4.498;2023-02-18T10:39:40;102147.63;;;9.68;86.40
60437;BME280;46289;51.992;4.498;2023-02-18T10:41:56;102147.63;;;9.68;86.76
60437;BME280;46289;51.992;4.498;2023-02-18T10:44:11;102150.19;;;9.73;86.75
60437;BME280;46289;51.992;4.498;2023-02-18T10:46:25;102140.44;;;9.81;86.22
60437;BME280;46289;51.992;4.498;2023-02-18T10:48:50;102143.00;;;9.85;86.02
60437;BME280;46289;51.992;4.498;2023-02-18T10:50:59;102145.44;;;9.96;85.79
60437;BME280;46289;51.992;4.498;2023-02-18T10:53:11;102149.78;;;9.99;85.76
60437;BME280;46289;51.992;4.498;2023-02-18T10:55:32;102156.69;;;10.04;85.56
60437;BME280;46289;51.992;4.498;2023-02-18T10:57:45;102147.91;;;10.05;86.06
60437;BME280;46289;51.992;4.498;2023-02-18T10:59:57;102133.03;;;10.06;85.40
60437;BME280;46289;51.992;4.498;2023-02-18T11:02:12;102142.63;;;10.08;85.53
60437;BME280;46289;51.992;4.498;2023-02-18T11:04:20;102144.28;;;10.13;85.59
60437;BME280;46289;51.992;4.498;2023-02-18T11:06:31;102133.81;;;10.11;85.68
60437;BME280;46289;51.992;4.498;2023-02-18T11:08:42;102140.81;;;10.10;85.31
60437;BME280;46289;51.992;4.498;2023-02-18T11:10:50;102149.56;;;10.11;85.20
60437;BME280;46289;51.992;4.498;2023-02-18T11:12:59;102140.81;;;10.10;85.60
60437;BME280;46289;51.992;4.498;2023-02-18T11:15:15;102141.63;;;10.14;85.53
60437;BME280;46289;51.992;4.498;2023-02-18T11:17:25;102139.88;;;10.15;85.75
60437;BME280;46289;51.992;4.498;2023-02-18T11:19:32;102146.78;;;10.19;85.08
60437;BME280;46289;51.992;4.498;2023-02-18T11:21:37;102157.28;;;10.20;85.53
60437;BME280;46289;51.992;4.498;2023-02-18T11:23:49;102140.56;;;10.27;85.17
60437;BME280;46289;51.992;4.498;2023-02-18T11:26:00;102144.84;;;10.31;85.18
60437;BME280;46289;51.992;4.498;2023-02-18T11:28:26;102158.69;;;10.41;84.87
60437;BME280;46289;51.992;4.498;2023-02-18T11:30:34;102147.25;;;10.42;84.80
60437;BME280;46289;51.992;4.498;2023-02-18T11:32:41;102142.16;;;10.35;84.36
60437;BME280;46289;51.992;4.498;2023-02-18T11:34:48;102152.50;;;10.42;84.48
60437;BME280;46289;51.992;4.498;2023-02-18T11:36:53;102146.41;;;10.42;84.75
60437;BME280;46289;51.992;4.498;2023-02-18T11:39:01;102137.72;;;10.38;84.34